Time;durP1;ratioP1;P1;durP2;ratioP2;P2;SDS_P1;SDS_P2;PMS_P1;PMS_P2;Temp;Humidity;BMP_temperature;BMP_pressure;BME280_temperature;BME280_humidity;BME280_pressure;Samples;Min_cycle;Max_cycle;Signal;HPM_P1;HPM_P2
2021/04/26 00:00:07;;;;;;;4.30;2.95;;;;;;;5.73;61.65;100458.62;1830858;78;21374;-53
2021/04/26 00:02:36;;;;;;;4.95;3.25;;;;;;;5.68;62.21;100454.41;1830077;78;21020;-53
2021/04/26 00:05:08;;;;;;;5.08;3.10;;;;;;;5.65;61.82;100466.61;1830640;78;20969;-53
2021/04/26 00:07:37;;;;;;;5.28;3.00;;;;;;;5.64;62.18;100466.86;1830826;78;21616;-53
2021/04/26 00:10:08;;;;;;;4.30;2.90;;;;;;;5.59;62.74;100469.45;1830917;78;21021;-53
2021/04/26 00:12:37;;;;;;;4.47;2.72;;;;;;;5.57;62.88;100462.89;1830772;78;21635;-53
2021/04/26 00:15:09;;;;;;;4.72;3.10;;;;;;;5.57;62.77;100469.70;1829401;78;21056;-53
2021/04/26 00:17:38;;;;;;;4.10;2.80;;;;;;;5.60;62.97;100471.13;1830717;78;21076;-54
2021/04/26 00:20:10;;;;;;;3.27;2.65;;;;;;;5.61;63.50;100471.42;1830714;78;21073;-53
2021/04/26 00:22:38;;;;;;;3.52;2.67;;;;;;;5.62;63.83;100475.27;1830760;78;21685;-53
2021/04/26 00:25:07;;;;;;;8.70;3.00;;;;;;;5.61;63.64;100465.43;1830650;78;21261;-53
2021/04/26 00:27:35;;;;;;;3.70;2.98;;;;;;;5.56;63.76;100464.49;1830884;77;21028;-53
2021/04/26 00:30:07;;;;;;;4.05;2.90;;;;;;;5.51;63.98;100470.13;1830768;78;21341;-53
2021/04/26 00:32:36;;;;;;;3.87;2.70;;;;;;;5.44;64.50;100462.61;1830757;78;21310;-54
2021/04/26 00:35:07;;;;;;;4.60;3.10;;;;;;;5.41;65.23;100471.80;1830718;78;21586;-53
2021/04/26 00:37:35;;;;;;;4.28;2.70;;;;;;;5.35;65.99;100464.05;1830653;78;22115;-53
2021/04/26 00:40:08;;;;;;;4.92;3.00;;;;;;;5.29;65.73;100463.65;1830621;78;21032;-53
2021/04/26 00:42:35;;;;;;;3.62;2.75;;;;;;;5.24;65.87;100466.24;1830853;78;21653;-53
2021/04/26 00:45:08;;;;;;;4.17;3.10;;;;;;;5.14;66.42;100458.11;1827678;78;20993;-53
2021/04/26 00:47:39;;;;;;;5.67;4.50;;;;;;;5.00;66.23;100451.25;1824588;78;20986;-53
2021/04/26 00:50:12;;;;;;;6.83;4.00;;;;;;;4.88;66.69;100438.18;1825014;78;22110;-53
2021/04/26 00:52:40;;;;;;;4.03;3.10;;;;;;;4.85;67.52;100443.55;1824069;78;21076;-53
2021/04/26 00:55:09;;;;;;;4.87;3.22;;;;;;;4.79;67.62;100441.23;1824843;78;21001;-53
2021/04/26 00:57:37;;;;;;;3.75;3.10;;;;;;;4.72;67.99;100431.00;1792866;78;21056;-53
2021/04/26 01:00:07;;;;;;;5.40;3.50;;;;;;;4.67;68.44;100427.63;1824849;78;21064;-53
2021/04/26 01:02:35;;;;;;;3.98;3.10;;;;;;;4.65;68.58;100424.83;1824778;78;22289;-53
2021/04/26 01:05:07;;;;;;;4.55;3.52;;;;;;;4.56;68.64;100423.50;1824796;78;21055;-53
2021/04/26 01:07:39;;;;;;;4.80;3.60;;;;;;;4.44;69.34;100427.02;1824763;78;21021;-53
2021/04/26 01:10:10;;;;;;;4.60;3.17;;;;;;;4.37;69.65;100413.23;1824999;78;21068;-53
2021/04/26 01:13:02;;;;;;;4.92;3.47;;;;;;;4.36;69.94;100408.34;1824751;78;21033;-53
2021/04/26 01:15:42;;;;;;;5.70;3.58;;;;;;;4.31;70.10;100413.63;1824586;78;21194;-53
2021/04/26 01:18:25;;;;;;;6.03;3.75;;;;;;;4.26;70.46;100416.23;1824801;78;21033;-53
2021/04/26 01:21:00;;;;;;;10.58;3.80;;;;;;;4.22;70.70;100419.12;1824855;78;20986;-53
2021/04/26 01:23:54;;;;;;;5.33;3.87;;;;;;;4.24;71.06;100427.86;1822888;78;21009;-53
2021/04/26 01:26:43;;;;;;;4.90;3.40;;;;;;;4.27;71.30;100419.23;1824811;77;20981;-53
2021/04/26 01:29:16;;;;;;;5.60;3.62;;;;;;;4.30;71.47;100422.84;1824579;78;21173;-53
2021/04/26 01:32:16;;;;;;;6.12;3.67;;;;;;;4.26;71.56;100414.34;1824792;78;21017;-53
2021/04/26 01:34:45;;;;;;;5.08;3.52;;;;;;;4.30;71.83;100402.45;1792647;78;21025;-53
2021/04/26 01:37:15;;;;;;;6.85;3.87;;;;;;;4.27;71.96;100388.81;1823654;78;21016;-53
2021/04/26 01:39:43;;;;;;;6.30;3.40;;;;;;;4.23;72.07;100394.92;1824675;78;20930;-53
2021/04/26 01:42:12;;;;;;;6.80;3.92;;;;;;;4.21;72.23;100387.55;1824649;78;21197;-53
2021/04/26 01:44:39;;;;;;;4.22;3.75;;;;;;;4.22;72.50;100398.73;1824305;78;21021;-53
2021/04/26 01:47:07;;;;;;;8.23;4.10;;;;;;;4.24;72.80;100396.59;1795076;78;21040;-53
2021/04/26 01:49:36;;;;;;;4.10;3.27;;;;;;;4.21;72.65;100394.34;1822675;78;21026;-53
2021/04/26 01:52:08;;;;;;;5.25;3.87;;;;;;;4.18;72.73;100405.14;1795581;78;21009;-53
2021/04/26 01:54:36;;;;;;;4.58;3.50;;;;;;;4.15;72.90;100399.63;1822715;78;22112;-53
2021/04/26 01:57:05;;;;;;;6.20;4.40;;;;;;;4.13;72.91;100400.41;1822768;78;20989;-53
2021/04/26 01:59:34;;;;;;;5.80;4.25;;;;;;;4.17;73.24;100398.58;1822628;78;21036;-53
2021/04/26 02:02:02;;;;;;;5.37;3.85;;;;;;;4.15;73.15;100386.03;1822735;78;20981;-53
2021/04/26 02:04:32;;;;;;;8.18;4.40;;;;;;;4.18;73.23;100388.02;1822621;78;21012;-53
2021/04/26 02:07:10;;;;;;;6.83;3.62;;;;;;;4.19;73.09;100385.06;1819547;78;21277;-53
2021/04/26 02:09:45;;;;;;;6.62;3.70;;;;;;;4.13;73.11;100389.53;1799599;78;21619;-53
2021/04/26 02:12:14;;;;;;;4.70;3.80;;;;;;;4.07;73.26;100391.83;1822568;78;21053;-53
2021/04/26 02:14:43;;;;;;;5.45;3.87;;;;;;;4.05;73.45;100382.23;1822733;78;20933;-53
2021/04/26 02:17:13;;;;;;;7.50;4.37;;;;;;;4.07;73.64;100379.59;1822671;78;21671;-53
2021/04/26 02:19:42;;;;;;;5.80;3.90;;;;;;;4.09;73.62;100382.08;1795389;78;21390;-53
2021/04/26 02:22:12;;;;;;;5.60;4.10;;;;;;;4.13;73.96;100382.73;1822698;78;21744;-53
2021/04/26 02:24:41;;;;;;;7.47;4.50;;;;;;;4.14;73.89;100387.13;1820257;78;21162;-53
2021/04/26 02:27:09;;;;;;;15.03;4.58;;;;;;;4.11;73.72;100373.97;1822535;77;21068;-53
2021/04/26 02:29:37;;;;;;;11.57;5.17;;;;;;;4.12;73.92;100371.55;1822588;78;21472;-53
2021/04/26 02:32:09;;;;;;;18.05;6.12;;;;;;;4.17;73.78;100369.49;1822682;78;21351;-53
2021/04/26 02:34:41;;;;;;;16.17;6.05;;;;;;;4.20;73.65;100355.46;1822236;78;21100;-53
2021/04/26 02:37:37;;;;;;;21.15;6.28;;;;;;;4.22;73.52;100352.51;1822678;78;21029;-53
2021/04/26 02:40:09;;;;;;;20.12;6.58;;;;;;;4.24;73.75;100350.38;1821486;78;21001;-53
2021/04/26 02:42:40;;;;;;;17.62;7.28;;;;;;;4.27;73.82;100343.95;1822685;78;21579;-53
2021/04/26 02:45:12;;;;;;;24.00;6.92;;;;;;;4.29;73.59;100339.63;1824735;78;21274;-53
2021/04/26 02:47:43;;;;;;;24.98;7.00;;;;;;;4.30;73.25;100335.83;1830734;78;21540;-53
2021/04/26 02:50:17;;;;;;;26.97;7.55;;;;;;;4.34;73.17;100330.23;1830828;78;20966;-53
2021/04/26 02:52:47;;;;;;;25.97;7.58;;;;;;;4.37;73.27;100333.83;1829365;78;21654;-53
2021/04/26 02:55:16;;;;;;;21.57;6.42;;;;;;;4.40;73.19;100337.98;1830924;78;20989;-53
2021/04/26 02:57:44;;;;;;;25.97;7.00;;;;;;;4.41;73.22;100332.30;1830952;78;22096;-53
2021/04/26 03:00:15;;;;;;;26.82;7.50;;;;;;;4.39;72.69;100319.48;1830750;78;21003;-53
2021/04/26 03:02:44;;;;;;;28.07;6.83;;;;;;;4.39;72.75;100301.81;1826602;78;21068;-53
2021/04/26 03:05:14;;;;;;;20.52;6.62;;;;;;;4.42;72.83;100302.69;1830425;78;21032;-53
2021/04/26 03:07:44;;;;;;;15.65;6.20;;;;;;;4.46;72.84;100312.04;1830912;78;21587;-53
2021/04/26 03:10:14;;;;;;;15.13;5.75;;;;;;;4.43;72.67;100304.36;1830889;78;21138;-54
2021/04/26 03:12:45;;;;;;;17.90;6.33;;;;;;;4.44;72.54;100303.81;1803098;78;21448;-53
2021/04/26 03:15:18;;;;;;;10.95;5.53;;;;;;;4.42;72.42;100298.61;1831000;78;21542;-53
2021/04/26 03:17:45;;;;;;;10.20;5.50;;;;;;;4.40;72.43;100293.95;1830720;78;21001;-53
2021/04/26 03:20:16;;;;;;;7.50;4.45;;;;;;;4.36;72.44;100294.13;1830719;78;21001;-53
2021/04/26 03:22:54;;;;;;;8.58;3.90;;;;;;;4.31;72.27;100313.02;1829687;78;21666;-53
2021/04/26 03:25:22;;;;;;;8.00;4.47;;;;;;;4.28;72.43;100321.11;1830816;78;21029;-53
2021/04/26 03:27:54;;;;;;;7.08;4.60;;;;;;;4.28;72.54;100328.45;1830852;77;21008;-53
2021/04/26 03:30:24;;;;;;;11.93;5.33;;;;;;;4.25;72.28;100324.30;1830551;78;20997;-53
2021/04/26 03:32:54;;;;;;;10.45;6.70;;;;;;;4.21;72.49;100326.38;1828481;78;20957;-53
2021/04/26 03:35:22;;;;;;;10.82;6.80;;;;;;;4.19;72.60;100325.25;1802756;78;21455;-53
2021/04/26 03:37:52;;;;;;;9.18;6.62;;;;;;;4.13;72.71;100322.94;1830828;78;20985;-53
2021/04/26 03:40:22;;;;;;;9.15;5.53;;;;;;;4.13;72.86;100323.47;1830863;78;21167;-53
2021/04/26 03:42:55;;;;;;;6.62;4.92;;;;;;;4.12;72.94;100318.55;1830783;78;21484;-53
2021/04/26 03:45:24;;;;;;;6.40;4.62;;;;;;;4.13;73.27;100320.75;1795491;79;21634;-53
2021/04/26 03:48:10;;;;;;;10.38;5.65;;;;;;;4.17;73.56;100327.36;1797978;79;21455;-53
2021/04/26 03:50:42;;;;;;;9.63;5.20;;;;;;;4.18;73.50;100330.92;1794459;79;21639;-53
2021/04/26 03:53:12;;;;;;;9.03;5.42;;;;;;;4.15;73.78;100332.20;1793618;79;21036;-53
2021/04/26 03:55:57;;;;;;;4.40;3.75;;;;;;;4.15;73.86;100335.75;1796920;79;20977;-53
2021/04/26 03:58:24;;;;;;;7.12;4.75;;;;;;;4.18;73.97;100336.36;1797845;79;21020;-53
2021/04/26 04:00:52;;;;;;;9.65;5.03;;;;;;;4.20;74.06;100341.02;1797894;79;21199;-53
2021/04/26 04:03:19;;;;;;;6.50;4.85;;;;;;;4.20;74.20;100347.81;1797817;79;21021;-53
2021/04/26 04:05:48;;;;;;;8.28;4.80;;;;;;;4.21;74.19;100354.92;1797705;79;20985;-53
2021/04/26 04:08:34;;;;;;;9.53;5.12;;;;;;;4.23;74.27;100347.34;1798083;79;27095;-53
2021/04/26 04:11:20;;;;;;;9.50;4.80;;;;;;;4.25;74.30;100346.59;1797884;79;21016;-53
2021/04/26 04:14:04;;;;;;;6.40;4.65;;;;;;;4.27;74.24;100351.26;1794019;79;21197;-53
2021/04/26 04:16:32;;;;;;;8.18;4.60;;;;;;;4.27;74.21;100347.17;1797620;79;21024;-53
2021/04/26 04:18:59;;;;;;;5.78;4.47;;;;;;;4.28;74.20;100349.66;1797783;79;21039;-53
2021/04/26 04:21:30;;;;;;;8.48;5.20;;;;;;;4.26;74.00;100349.08;1797727;79;21044;-53
2021/04/26 04:23:57;;;;;;;7.72;4.75;;;;;;;4.25;73.97;100347.95;1797811;79;21024;-55
2021/04/26 04:26:25;;;;;;;6.45;4.60;;;;;;;4.24;74.02;100351.19;1797941;78;21261;-53
2021/04/26 04:28:55;;;;;;;6.62;4.15;;;;;;;4.23;73.97;100343.27;1796560;79;21052;-53
2021/04/26 04:31:26;;;;;;;18.20;5.42;;;;;;;4.26;74.24;100336.84;1794815;79;21021;-53
2021/04/26 04:33:55;;;;;;;10.78;4.60;;;;;;;4.29;74.04;100342.35;1795544;79;21156;-53
2021/04/26 04:36:36;;;;;;;10.55;5.78;;;;;;;4.31;74.01;100340.22;1763827;79;21017;-53
2021/04/26 04:39:22;;;;;;;9.48;6.80;;;;;;;4.32;73.89;100344.60;1798130;79;21377;-53
2021/04/26 04:42:09;;;;;;;5.90;4.20;;;;;;;4.33;74.07;100349.80;1797759;79;21016;-53
2021/04/26 04:44:37;;;;;;;13.50;5.85;;;;;;;4.36;73.92;100348.52;1797694;79;21345;-54
2021/04/26 04:47:05;;;;;;;14.83;6.00;;;;;;;4.38;73.68;100350.45;1819103;78;21053;-54
2021/04/26 04:49:34;;;;;;;10.68;5.72;;;;;;;4.40;73.56;100344.77;1824686;78;21013;-54
2021/04/26 04:52:03;;;;;;;11.28;6.75;;;;;;;4.44;73.68;100349.50;1824865;78;21192;-54
2021/04/26 04:54:31;;;;;;;8.55;4.85;;;;;;;4.47;73.31;100350.42;1824547;78;21060;-54
2021/04/26 04:57:00;;;;;;;44.03;9.75;;;;;;;4.45;73.16;100359.33;1824509;78;21057;-54
2021/04/26 04:59:29;;;;;;;10.72;4.65;;;;;;;4.30;72.70;100366.59;1792787;78;21052;-54
2021/04/26 05:01:58;;;;;;;8.43;5.03;;;;;;;4.15;73.11;100362.94;1823146;78;21041;-54
2021/04/26 05:04:47;;;;;;;7.87;5.92;;;;;;;4.14;73.74;100354.50;1824692;78;21194;-54
2021/04/26 05:07:26;;;;;;;13.13;5.87;;;;;;;4.22;74.23;100346.53;1818814;78;21029;-54
2021/04/26 05:10:12;;;;;;;15.63;6.62;;;;;;;4.29;74.26;100343.72;1819226;78;21049;-54
2021/04/26 05:13:01;;;;;;;17.42;5.50;;;;;;;4.41;73.98;100345.90;1818248;78;24069;-54
2021/04/26 05:15:40;;;;;;;9.70;5.28;;;;;;;4.35;74.14;100344.12;1781011;79;21026;-54
2021/04/26 05:18:07;;;;;;;21.50;5.30;;;;;;;4.38;74.17;100351.81;1786211;79;21203;-54
2021/04/26 05:20:36;;;;;;;7.78;4.50;;;;;;;4.42;73.82;100353.00;1787988;78;21035;-54
2021/04/26 05:23:04;;;;;;;20.55;6.65;;;;;;;4.44;73.49;100347.33;1787355;79;21053;-54
2021/04/26 05:25:32;;;;;;;15.88;5.70;;;;;;;4.42;73.54;100348.11;1784431;78;21018;-54
2021/04/26 05:28:00;;;;;;;8.58;4.70;;;;;;;4.39;73.43;100348.58;1775368;79;21057;-54
2021/04/26 05:30:29;;;;;;;7.75;4.78;;;;;;;4.38;73.38;100349.64;1765012;79;21344;-54
2021/04/26 05:32:59;;;;;;;11.10;4.65;;;;;;;4.40;73.37;100352.94;1780406;80;21053;-54
2021/04/26 05:35:46;;;;;;;7.80;4.65;;;;;;;4.41;73.03;100354.06;1772572;79;21010;-53
2021/04/26 05:38:17;;;;;;;8.23;5.70;;;;;;;4.44;73.21;100356.30;1761225;79;20998;-54
2021/04/26 05:40:48;;;;;;;10.45;5.40;;;;;;;4.55;73.10;100358.75;1757402;79;21067;-54
2021/04/26 05:43:16;;;;;;;9.45;4.67;;;;;;;4.68;72.67;100354.44;1775519;80;21366;-54
2021/04/26 05:45:46;;;;;;;7.00;4.87;;;;;;;4.78;72.57;100353.03;1770363;79;21355;-54
2021/04/26 05:48:15;;;;;;;7.47;4.75;;;;;;;4.86;72.05;100354.05;1770077;79;21024;-54
2021/04/26 05:50:43;;;;;;;10.53;5.53;;;;;;;4.89;71.63;100351.36;1768685;79;21464;-54
2021/04/26 05:53:10;;;;;;;12.25;4.50;;;;;;;4.89;71.35;100350.00;1774332;79;22421;-54
2021/04/26 05:55:38;;;;;;;7.12;4.35;;;;;;;4.91;71.41;100347.34;1778869;78;23539;-54
2021/04/26 05:58:05;;;;;;;10.90;6.87;;;;;;;4.98;71.28;100348.59;1772191;79;21039;-54
2021/04/26 06:00:32;;;;;;;16.30;9.35;;;;;;;5.03;70.84;100345.98;1768256;78;20982;-54
2021/04/26 06:03:00;;;;;;;8.33;5.72;;;;;;;5.11;70.69;100339.34;1776275;79;21031;-54
2021/04/26 06:05:28;;;;;;;11.35;5.47;;;;;;;5.18;70.50;100339.48;1777874;79;21064;-54
2021/04/26 06:07:57;;;;;;;8.25;4.40;;;;;;;5.30;70.28;100338.64;1779111;79;21622;-54
2021/04/26 06:10:24;;;;;;;10.35;5.80;;;;;;;5.38;69.88;100334.19;1780271;79;21042;-54
2021/04/26 06:12:52;;;;;;;9.45;5.55;;;;;;;5.48;69.28;100329.48;1771315;79;21052;-55
2021/04/26 06:15:22;;;;;;;6.22;4.30;;;;;;;5.52;68.93;100328.75;1757123;80;21212;-55
2021/04/26 06:17:50;;;;;;;5.87;4.22;;;;;;;5.60;68.89;100332.16;1762656;80;21051;-54
2021/04/26 06:20:17;;;;;;;7.62;4.55;;;;;;;5.69;68.14;100341.62;1760110;80;21187;-53
2021/04/26 06:22:46;;;;;;;7.97;4.75;;;;;;;5.76;67.18;100333.28;1753964;80;22525;-51
2021/04/26 06:25:14;;;;;;;6.62;4.58;;;;;;;5.82;66.99;100338.59;1766849;80;21026;-53
2021/04/26 06:27:42;;;;;;;7.40;4.62;;;;;;;5.84;66.24;100336.44;1768452;80;21794;-52
2021/04/26 06:30:11;;;;;;;6.62;4.62;;;;;;;5.88;66.09;100338.16;1766671;80;21050;-53
2021/04/26 06:32:39;;;;;;;5.22;4.30;;;;;;;5.96;66.37;100330.95;1772201;80;21240;-53
2021/04/26 06:35:08;;;;;;;8.98;5.22;;;;;;;6.10;65.17;100336.95;1755836;80;21033;-52
2021/04/26 06:37:37;;;;;;;10.60;5.42;;;;;;;6.17;64.74;100333.53;1763006;80;21564;-52
2021/04/26 06:40:06;;;;;;;7.80;5.87;;;;;;;6.29;64.91;100330.73;1748832;80;22125;-52
2021/04/26 06:42:35;;;;;;;10.00;5.87;;;;;;;6.41;64.04;100333.37;1762905;79;21056;-51
2021/04/26 06:45:05;;;;;;;14.50;6.62;;;;;;;6.53;63.93;100338.73;1763519;80;21200;-53
2021/04/26 06:47:33;;;;;;;16.82;7.10;;;;;;;6.68;63.48;100329.97;1761950;80;21024;-53
2021/04/26 06:50:01;;;;;;;10.70;6.72;;;;;;;6.75;63.35;100330.07;1762618;80;21002;-53
2021/04/26 06:52:28;;;;;;;11.70;6.08;;;;;;;6.82;63.06;100327.17;1764899;80;21263;-53
2021/04/26 06:54:56;;;;;;;15.95;7.40;;;;;;;6.96;63.06;100329.02;1760694;79;20969;-54
2021/04/26 06:57:24;;;;;;;13.22;6.08;;;;;;;7.12;62.60;100324.59;1766040;79;21204;-54
2021/04/26 06:59:53;;;;;;;12.05;5.90;;;;;;;7.27;61.92;100322.58;1769816;79;21561;-54
2021/04/26 07:02:21;;;;;;;9.38;6.50;;;;;;;7.41;61.16;100321.67;1767857;79;20984;-54
2021/04/26 07:04:48;;;;;;;12.88;7.20;;;;;;;7.51;60.61;100319.60;1763000;80;20970;-53
2021/04/26 07:07:16;;;;;;;11.20;7.80;;;;;;;7.61;60.05;100320.53;1768509;79;20927;-54
2021/04/26 07:09:46;;;;;;;9.45;5.53;;;;;;;7.76;60.54;100321.80;1770407;79;21207;-53
2021/04/26 07:12:13;;;;;;;12.98;5.95;;;;;;;7.89;59.23;100324.12;1771905;79;20951;-54
2021/04/26 07:14:40;;;;;;;14.40;8.13;;;;;;;7.91;58.34;100312.92;1775821;78;21036;-53
2021/04/26 07:17:08;;;;;;;13.78;6.12;;;;;;;7.96;58.59;100319.27;1773146;79;20980;-53
2021/04/26 07:19:36;;;;;;;9.35;5.50;;;;;;;8.07;57.57;100314.73;1776729;79;20997;-54
2021/04/26 07:22:03;;;;;;;12.05;6.78;;;;;;;8.23;57.35;100304.74;1782975;79;21378;-53
2021/04/26 07:24:31;;;;;;;15.63;6.78;;;;;;;8.41;57.01;100308.98;1773107;78;20987;-53
2021/04/26 07:26:58;;;;;;;14.73;6.10;;;;;;;8.63;56.42;100314.39;1771572;79;20993;-53
2021/04/26 07:29:25;;;;;;;9.50;5.28;;;;;;;8.86;55.63;100315.61;1773178;78;20984;-54
2021/04/26 07:31:53;;;;;;;7.62;4.42;;;;;;;8.92;54.97;100322.23;1772715;79;20971;-53
2021/04/26 07:34:20;;;;;;;11.88;5.33;;;;;;;8.79;54.59;100317.23;1771641;79;21435;-53
2021/04/26 07:36:48;;;;;;;8.68;5.37;;;;;;;8.58;54.93;100319.81;1781769;79;21001;-53
2021/04/26 07:39:15;;;;;;;10.08;5.10;;;;;;;8.46;55.86;100328.77;1773717;79;21005;-55
2021/04/26 07:41:43;;;;;;;9.38;5.03;;;;;;;8.41;56.35;100322.66;1772262;79;20968;-54
2021/04/26 07:44:10;;;;;;;8.50;4.65;;;;;;;8.37;56.42;100328.92;1776766;79;20974;-53
2021/04/26 07:46:38;;;;;;;15.40;5.05;;;;;;;8.29;55.59;100326.95;1769060;78;21189;-53
2021/04/26 07:49:06;;;;;;;16.73;5.28;;;;;;;8.25;55.39;100329.11;1764012;79;20979;-52
2021/04/26 07:51:34;;;;;;;8.10;4.15;;;;;;;8.20;54.60;100323.05;1767383;79;21013;-53
2021/04/26 07:54:02;;;;;;;6.40;4.47;;;;;;;8.17;54.50;100322.18;1776603;79;20986;-52
2021/04/26 07:56:31;;;;;;;7.72;4.42;;;;;;;8.00;53.44;100317.38;1770535;78;20950;-54
2021/04/26 07:58:59;;;;;;;8.33;4.67;;;;;;;7.89;54.14;100320.02;1774937;79;21336;-53
2021/04/26 08:01:26;;;;;;;7.60;4.53;;;;;;;7.95;54.09;100318.16;1762164;79;20988;-53
2021/04/26 08:03:54;;;;;;;9.48;4.78;;;;;;;8.06;53.90;100312.23;1775598;79;21022;-54
2021/04/26 08:06:22;;;;;;;7.15;4.35;;;;;;;8.13;53.39;100310.10;1772658;79;20937;-53
2021/04/26 08:08:49;;;;;;;7.15;3.90;;;;;;;8.23;52.80;100316.21;1769062;79;20950;-52
2021/04/26 08:11:17;;;;;;;10.10;3.27;;;;;;;8.31;50.83;100315.73;1770480;79;21409;-52
2021/04/26 08:13:44;;;;;;;6.70;3.62;;;;;;;8.42;48.33;100315.30;1772431;80;20966;-53
2021/04/26 08:16:12;;;;;;;8.55;3.45;;;;;;;8.57;46.83;100322.26;1768547;79;21010;-53
2021/04/26 08:18:40;;;;;;;20.35;4.53;;;;;;;8.77;45.92;100312.55;1765427;79;20970;-51
2021/04/26 08:21:08;;;;;;;6.53;3.25;;;;;;;8.92;43.90;100312.64;1764286;79;20976;-52
2021/04/26 08:23:38;;;;;;;6.08;3.25;;;;;;;9.09;43.33;100321.24;1765697;79;21367;-52
2021/04/26 08:26:05;;;;;;;7.62;2.80;;;;;;;9.23;42.78;100318.30;1767997;80;21047;-52
2021/04/26 08:28:36;;;;;;;5.90;3.98;;;;;;;9.38;41.38;100311.23;1765523;79;22024;-52
2021/04/26 08:33:54;;;;;;;9.40;3.52;;;;;;;9.54;41.16;100307.98;1875402;74;24235;-52
2021/04/26 08:36:25;;;;;;;16.12;3.52;;;;;;;9.50;41.31;100319.50;1856903;76;20924;-53
2021/04/26 08:38:53;;;;;;;11.10;3.37;;;;;;;9.44;41.77;100322.48;1859965;76;22006;-53
2021/04/26 08:41:20;;;;;;;4.92;2.50;;;;;;;9.37;42.81;100311.75;1855199;75;21497;-52
2021/04/26 08:43:48;;;;;;;7.95;3.33;;;;;;;9.33;42.98;100313.38;1782103;79;21440;-52
2021/04/26 08:46:16;;;;;;;11.83;2.98;;;;;;;9.37;42.84;100315.05;1774481;79;21527;-53
2021/04/26 08:48:45;;;;;;;7.03;2.80;;;;;;;9.38;41.63;100310.67;1807670;77;20928;-51
2021/04/26 08:51:15;;;;;;;9.65;3.05;;;;;;;9.38;42.16;100313.41;1813583;77;21312;-52
2021/04/26 08:53:43;;;;;;;4.28;2.40;;;;;;;9.46;41.87;100314.80;1800808;77;20942;-52
2021/04/26 08:56:10;;;;;;;5.15;2.77;;;;;;;9.50;41.58;100307.69;1778940;79;21094;-52
2021/04/26 08:58:39;;;;;;;9.23;3.22;;;;;;;9.53;41.56;100315.93;1809591;77;20959;-53
2021/04/26 09:01:07;;;;;;;9.78;3.40;;;;;;;9.56;41.50;100312.64;1810944;78;21556;-52
2021/04/26 09:03:36;;;;;;;7.97;3.72;;;;;;;9.53;40.42;100312.66;1776310;79;21369;-54
2021/04/26 09:06:10;;;;;;;8.60;4.62;;;;;;;9.58;40.45;100316.77;1792988;78;20998;-53
2021/04/26 09:08:37;;;;;;;6.08;3.92;;;;;;;9.77;40.70;100310.23;1801351;78;21025;-54
2021/04/26 09:11:07;;;;;;;6.85;3.80;;;;;;;9.88;40.47;100317.95;1792729;79;20938;-53
2021/04/26 09:13:42;;;;;;;7.25;2.67;;;;;;;10.12;40.20;100314.70;1795449;78;20995;-51
2021/04/26 09:16:22;;;;;;;4.78;2.60;;;;;;;10.46;40.88;100314.17;1801059;78;21197;-52
2021/04/26 09:19:03;;;;;;;4.85;2.47;;;;;;;10.56;38.65;100315.56;1782210;79;21662;-52
2021/04/26 09:21:43;;;;;;;9.00;2.70;;;;;;;10.50;38.82;100304.28;1815705;77;20978;-52
2021/04/26 09:24:37;;;;;;;6.37;2.40;;;;;;;10.29;38.62;100306.17;1805375;79;21533;-52
2021/04/26 09:27:09;;;;;;;9.70;3.12;;;;;;;10.07;37.85;100307.27;1779561;78;22052;-53
2021/04/26 09:29:37;;;;;;;7.30;2.60;;;;;;;9.87;38.33;100310.80;1779785;79;22277;-54
2021/04/26 09:32:19;;;;;;;4.72;2.25;;;;;;;9.78;38.66;100316.56;1779406;80;21124;-51
2021/04/26 09:34:51;;;;;;;6.78;3.00;;;;;;;9.66;38.64;100303.91;1782503;80;20939;-52
2021/04/26 09:37:24;;;;;;;8.10;3.30;;;;;;;9.54;38.83;100318.95;1780186;80;20982;-53
2021/04/26 09:40:07;;;;;;;16.07;3.10;;;;;;;9.49;38.68;100317.03;1780018;80;20943;-52
2021/04/26 09:42:51;;;;;;;9.10;2.55;;;;;;;9.49;39.73;100306.88;1773638;80;21204;-54
2021/04/26 09:45:40;;;;;;;4.80;2.72;;;;;;;9.62;38.99;100322.55;1777854;80;20986;-53
2021/04/26 09:48:16;;;;;;;6.10;3.00;;;;;;;9.68;37.12;100309.94;1788466;80;20989;-54
2021/04/26 09:51:19;;;;;;;4.90;2.47;;;;;;;9.71;36.92;100314.06;1741926;80;21574;-54
2021/04/26 09:53:52;;;;;;;8.45;2.30;;;;;;;9.79;36.52;100318.22;1753066;80;21541;-54
2021/04/26 09:56:26;;;;;;;6.75;2.90;;;;;;;9.74;36.76;100312.15;1755816;80;21449;-54
2021/04/26 09:58:55;;;;;;;10.15;5.12;;;;;;;9.81;36.83;100310.53;1753482;80;21540;-54
2021/04/26 10:01:25;;;;;;;10.32;2.58;;;;;;;9.94;36.44;100309.17;1753200;80;21122;-53
2021/04/26 10:03:53;;;;;;;4.00;2.98;;;;;;;10.06;35.25;100317.14;1757318;80;21016;-53
2021/04/26 10:06:25;;;;;;;7.17;3.20;;;;;;;10.14;35.14;100317.98;1752153;80;20987;-53
2021/04/26 10:09:01;;;;;;;5.00;2.70;;;;;;;10.14;34.62;100316.05;1753007;80;22197;-54
2021/04/26 10:11:30;;;;;;;11.48;3.75;;;;;;;10.18;34.92;100311.66;1749084;80;21015;-54
2021/04/26 10:14:10;;;;;;;8.68;2.80;;;;;;;10.38;35.34;100310.88;1753772;80;20996;-53
2021/04/26 10:17:03;;;;;;;6.45;3.33;;;;;;;10.51;35.70;100314.17;1753500;80;20986;-53
2021/04/26 10:19:33;;;;;;;7.53;2.42;;;;;;;10.59;36.05;100312.78;1745301;80;20974;-54
2021/04/26 10:22:03;;;;;;;3.67;1.90;;;;;;;10.66;34.84;100310.05;1752057;80;22143;-55
2021/04/26 10:24:32;;;;;;;3.60;2.10;;;;;;;10.61;34.97;100314.72;1745374;80;21534;-53
2021/04/26 10:27:07;;;;;;;6.47;2.58;;;;;;;10.48;34.73;100325.16;1753103;79;21020;-54
2021/04/26 10:29:38;;;;;;;8.15;2.92;;;;;;;10.31;34.46;100330.08;1755754;80;21045;-54
2021/04/26 10:32:14;;;;;;;3.72;2.45;;;;;;;10.10;35.32;100329.23;1755350;80;20953;-54
2021/04/26 10:34:51;;;;;;;14.65;2.65;;;;;;;9.94;35.66;100317.41;1750731;80;21074;-54
2021/04/26 10:37:22;;;;;;;15.18;3.00;;;;;;;9.81;35.39;100314.64;1754377;80;20977;-54
2021/04/26 10:40:05;;;;;;;4.35;2.83;;;;;;;9.79;35.38;100311.36;1753271;80;21050;-55
2021/04/26 10:42:35;;;;;;;5.87;2.83;;;;;;;9.89;34.95;100313.27;1756220;80;20987;-53
2021/04/26 10:45:21;;;;;;;3.83;2.52;;;;;;;10.20;33.68;100312.23;1758750;80;20957;-54
2021/04/26 10:48:06;;;;;;;4.85;2.47;;;;;;;10.49;31.70;100315.83;1751924;80;21385;-53
2021/04/26 10:50:39;;;;;;;6.35;2.15;;;;;;;10.54;30.36;100308.13;1748169;79;20981;-52
2021/04/26 10:53:09;;;;;;;4.78;2.37;;;;;;;10.52;30.92;100312.53;1752862;80;21023;-51
2021/04/26 10:55:44;;;;;;;4.35;2.17;;;;;;;10.66;31.35;100307.30;1761313;80;21534;-54
2021/04/26 10:58:26;;;;;;;4.90;2.67;;;;;;;10.85;31.52;100308.09;1755179;79;21073;-54
2021/04/26 11:00:54;;;;;;;10.75;2.65;;;;;;;11.02;30.65;100309.16;1760111;80;21356;-52
2021/04/26 11:03:31;;;;;;;11.10;2.75;;;;;;;11.17;31.14;100306.89;1752657;80;21047;-51
2021/04/26 11:06:10;;;;;;;9.50;2.98;;;;;;;11.24;31.30;100306.05;1750915;79;21001;-53
2021/04/26 11:11:18;;;;;;;7.78;2.80;;;;;;;11.46;30.84;100313.94;1749057;80;20994;-53
2021/04/26 11:13:54;;;;;;;7.55;2.37;;;;;;;11.57;30.40;100306.45;1762409;80;21375;-53
2021/04/26 11:16:32;;;;;;;11.97;2.72;;;;;;;11.55;30.74;100310.05;1745898;80;21552;-53
2021/04/26 11:19:09;;;;;;;4.05;2.20;;;;;;;11.52;31.48;100307.87;1749314;80;21662;-52
2021/04/26 11:21:48;;;;;;;7.72;2.50;;;;;;;11.50;31.94;100310.06;1758113;80;20965;-52
2021/04/26 11:24:30;;;;;;;18.17;4.70;;;;;;;11.54;32.07;100312.52;1762990;80;21006;-54
2021/04/26 11:27:19;;;;;;;27.15;6.12;;;;;;;11.51;32.31;100310.34;1757848;80;21352;-53
2021/04/26 11:29:53;;;;;;;15.25;4.45;;;;;;;11.47;32.30;100303.75;1761217;79;21497;-53
2021/04/26 11:32:22;;;;;;;16.65;4.40;;;;;;;11.34;31.65;100315.63;1747784;80;21548;-54
2021/04/26 11:34:59;;;;;;;3.10;2.00;;;;;;;11.21;31.38;100319.80;1749466;80;20986;-52
2021/04/26 11:37:27;;;;;;;3.90;2.20;;;;;;;11.12;30.19;100320.64;1748714;80;21019;-52
2021/04/26 11:39:56;;;;;;;8.60;2.60;;;;;;;10.89;30.69;100318.24;1753628;80;21686;-52
2021/04/26 11:42:26;;;;;;;7.90;3.20;;;;;;;10.82;31.27;100321.02;1760042;80;21579;-53
2021/04/26 11:44:54;;;;;;;6.37;3.47;;;;;;;10.85;31.74;100320.45;1756454;80;20961;-52
2021/04/26 11:47:24;;;;;;;8.18;2.80;;;;;;;10.96;31.87;100311.63;1760236;80;20969;-54
2021/04/26 11:49:59;;;;;;;10.05;2.98;;;;;;;11.08;31.70;100316.84;1750402;80;20950;-53
2021/04/26 11:52:29;;;;;;;9.33;2.50;;;;;;;11.22;31.65;100321.45;1752101;80;22031;-53
2021/04/26 11:55:08;;;;;;;16.97;3.40;;;;;;;11.72;30.17;100309.13;1756249;80;20979;-53